Time;durP1;ratioP1;P1;durP2;ratioP2;P2;SDS_P1;SDS_P2;PMS_P1;PMS_P2;Temp;Humidity;BMP_temperature;BMP_pressure;BME280_temperature;BME280_humidity;BME280_pressure;Samples;Min_cycle;Max_cycle;Signal;HPM_P1;HPM_P2
2023/01/16 00:01:46;;;;;;;3.65;1.35;;;3.20;99.90;;;;;;4926430;29;20193;-69
2023/01/16 00:04:13;;;;;;;1.42;1.33;;;3.20;99.90;;;;;;4926854;29;20210;-68
2023/01/16 00:06:40;;;;;;;1.83;0.90;;;3.20;99.90;;;;;;4926766;29;20303;-69
2023/01/16 00:09:09;;;;;;;3.40;1.08;;;3.20;99.90;;;;;;4919581;29;20230;-69
2023/01/16 00:11:36;;;;;;;2.28;0.95;;;3.30;99.90;;;;;;4925261;29;20254;-68
2023/01/16 00:14:03;;;;;;;2.75;1.27;;;3.40;99.90;;;;;;4922499;29;20203;-68
2023/01/16 00:16:30;;;;;;;1.75;0.93;;;3.40;99.90;;;;;;4926059;29;20199;-69
2023/01/16 00:18:57;;;;;;;2.03;1.20;;;3.50;99.90;;;;;;4922076;29;20694;-68
2023/01/16 00:21:25;;;;;;;1.85;1.23;;;3.60;99.90;;;;;;4924436;29;20199;-68
2023/01/16 00:23:53;;;;;;;1.85;0.95;;;3.60;99.90;;;;;;4924611;29;20218;-68
2023/01/16 00:26:22;;;;;;;1.80;0.90;;;3.60;99.90;;;;;;4930392;29;20298;-68
2023/01/16 00:28:49;;;;;;;2.80;1.08;;;3.70;99.90;;;;;;4933486;29;20254;-68
2023/01/16 00:31:17;;;;;;;1.77;0.82;;;3.70;99.90;;;;;;4927762;29;20279;-69
2023/01/16 00:33:44;;;;;;;2.40;1.00;;;3.80;99.90;;;;;;4927361;29;20735;-68
2023/01/16 00:36:12;;;;;;;1.63;1.00;;;3.80;99.90;;;;;;4928523;29;20214;-68
2023/01/16 00:38:39;;;;;;;2.47;1.00;;;3.80;99.90;;;;;;4929582;29;20314;-68
2023/01/16 00:41:06;;;;;;;3.90;1.17;;;3.80;99.90;;;;;;4925300;29;20206;-68
2023/01/16 00:43:35;;;;;;;3.72;1.10;;;3.90;99.90;;;;;;4930157;29;20209;-68
2023/01/16 00:46:02;;;;;;;2.38;1.20;;;3.80;99.90;;;;;;4928631;29;20203;-68
2023/01/16 00:48:29;;;;;;;2.75;1.20;;;3.80;99.90;;;;;;4929484;29;20315;-68
2023/01/16 00:50:56;;;;;;;1.85;0.88;;;3.80;99.90;;;;;;4927710;29;20275;-68
2023/01/16 00:53:23;;;;;;;1.42;0.90;;;3.90;99.90;;;;;;4929850;29;20560;-68
2023/01/16 00:55:51;;;;;;;2.33;0.95;;;3.90;99.90;;;;;;4927179;29;20567;-68
2023/01/16 00:58:18;;;;;;;1.05;0.90;;;3.90;99.90;;;;;;4930159;29;20221;-68
2023/01/16 01:00:46;;;;;;;2.03;1.23;;;3.80;99.90;;;;;;4934483;29;20205;-69
2023/01/16 01:03:13;;;;;;;2.55;0.93;;;3.80;99.90;;;;;;4925460;29;20202;-68
2023/01/16 01:05:40;;;;;;;3.28;0.95;;;3.80;99.90;;;;;;4925374;29;20209;-68
2023/01/16 01:08:08;;;;;;;2.13;1.00;;;3.80;99.90;;;;;;4925438;29;20910;-69
2023/01/16 01:10:37;;;;;;;1.77;1.02;;;3.80;99.90;;;;;;4922144;29;20580;-68
2023/01/16 01:13:04;;;;;;;1.50;0.90;;;3.80;99.90;;;;;;4930101;29;20298;-69
2023/01/16 01:15:32;;;;;;;1.67;1.00;;;3.70;99.90;;;;;;4928882;29;20235;-69
2023/01/16 01:18:00;;;;;;;3.03;1.20;;;3.70;99.90;;;;;;4933581;29;20213;-69
2023/01/16 01:20:27;;;;;;;2.25;1.13;;;3.70;99.90;;;;;;4929168;29;20227;-69
2023/01/16 01:22:54;;;;;;;2.35;1.38;;;3.70;99.90;;;;;;4924751;29;20633;-68
2023/01/16 01:25:22;;;;;;;2.75;0.90;;;3.70;99.90;;;;;;4929096;29;20211;-69
2023/01/16 01:27:49;;;;;;;4.88;1.00;;;3.60;99.90;;;;;;4926628;29;20210;-68
2023/01/16 01:30:16;;;;;;;2.88;1.20;;;3.50;99.90;;;;;;4928070;29;20281;-68
2023/01/16 01:32:43;;;;;;;2.60;1.10;;;3.50;99.90;;;;;;4931196;29;20218;-69
2023/01/16 01:35:12;;;;;;;1.95;0.98;;;3.50;99.90;;;;;;4923009;29;20215;-68
2023/01/16 01:37:39;;;;;;;1.20;1.00;;;3.50;99.90;;;;;;4924113;29;20257;-69
2023/01/16 01:40:07;;;;;;;1.90;0.80;;;3.40;99.90;;;;;;4922793;29;20311;-69
2023/01/16 01:42:47;;;;;;;2.92;0.95;;;3.40;99.90;;;;;;4924437;28;20462;-69
2023/01/16 01:45:20;;;;;;;2.05;0.95;;;3.30;99.90;;;;;;4927975;29;20227;-69
2023/01/16 01:47:54;;;;;;;1.67;0.80;;;3.30;99.90;;;;;;4928714;29;20738;-69
2023/01/16 01:50:37;;;;;;;1.80;1.10;;;3.20;99.90;;;;;;4925814;29;20226;-69
2023/01/16 01:53:09;;;;;;;1.10;0.90;;;3.20;99.90;;;;;;4928449;29;20238;-69
2023/01/16 01:55:38;;;;;;;2.55;1.13;;;3.10;99.90;;;;;;4928531;29;20244;-69
2023/01/16 01:58:05;;;;;;;3.03;1.25;;;3.00;99.90;;;;;;4927616;29;20259;-69
2023/01/16 02:00:32;;;;;;;2.33;1.25;;;3.00;99.90;;;;;;4925645;29;20206;-68
2023/01/16 02:03:06;;;;;;;2.83;1.33;;;2.90;99.90;;;;;;4927957;29;20687;-68
2023/01/16 02:05:40;;;;;;;2.83;1.35;;;2.90;99.90;;;;;;4921431;29;20200;-69
2023/01/16 02:08:08;;;;;;;2.63;1.30;;;2.90;99.90;;;;;;4930478;29;20245;-68
2023/01/16 02:10:39;;;;;;;4.47;1.50;;;2.80;99.90;;;;;;4928048;29;20211;-69
2023/01/16 02:13:06;;;;;;;2.75;1.15;;;2.80;99.90;;;;;;4925076;29;20224;-69
2023/01/16 02:15:35;;;;;;;2.10;1.35;;;2.70;99.90;;;;;;4925380;29;20205;-69
2023/01/16 02:21:01;;;;;;;5.15;1.50;;;2.60;99.90;;;;;;4928642;29;20643;-68
2023/01/16 02:23:58;;;;;;;2.72;1.30;;;2.60;99.90;;;;;;4925237;29;20296;-69
2023/01/16 02:26:52;;;;;;;2.22;1.55;;;2.50;99.90;;;;;;4926909;29;20673;-69
2023/01/16 02:29:54;;;;;;;1.38;1.20;;;2.50;99.90;;;;;;4929104;29;20226;-68
2023/01/16 02:32:41;;;;;;;4.55;1.10;;;2.50;99.90;;;;;;4929569;29;20285;-68
2023/01/16 02:35:26;;;;;;;1.90;1.20;;;2.50;99.90;;;;;;4928199;29;20204;-69
2023/01/16 02:37:56;;;;;;;1.75;1.00;;;2.50;99.90;;;;;;4927684;29;20202;-69
2023/01/16 02:40:37;;;;;;;3.80;1.30;;;2.50;99.90;;;;;;4926290;29;20755;-68
2023/01/16 02:43:15;;;;;;;2.22;1.40;;;2.40;99.90;;;;;;4927824;29;20205;-68
2023/01/16 02:45:49;;;;;;;1.65;1.20;;;2.40;99.90;;;;;;4920691;29;20191;-69
2023/01/16 02:48:26;;;;;;;1.27;0.98;;;2.40;99.90;;;;;;4928714;29;20218;-68
2023/01/16 02:50:58;;;;;;;2.10;1.42;;;2.40;99.90;;;;;;4929084;29;20295;-68
2023/01/16 02:53:30;;;;;;;2.45;1.00;;;2.40;99.90;;;;;;4931492;29;20230;-68
2023/01/16 02:56:02;;;;;;;2.58;1.00;;;2.40;99.90;;;;;;4927287;29;20546;-68
2023/01/16 02:58:32;;;;;;;3.63;1.40;;;2.30;99.90;;;;;;4924590;29;20697;-69
2023/01/16 03:01:01;;;;;;;3.42;1.40;;;2.30;99.90;;;;;;4924679;29;20231;-68
2023/01/16 03:03:39;;;;;;;2.40;1.10;;;2.30;99.90;;;;;;4925553;29;20296;-68
2023/01/16 03:06:25;;;;;;;4.47;0.90;;;2.30;99.90;;;;;;4922763;29;20203;-68
2023/01/16 03:09:00;;;;;;;3.95;1.30;;;2.20;99.90;;;;;;4925035;29;20214;-68
2023/01/16 03:11:30;;;;;;;2.80;1.33;;;2.20;99.90;;;;;;4923861;29;20244;-68
2023/01/16 03:14:31;;;;;;;2.97;1.38;;;2.30;99.90;;;;;;4920855;29;20199;-68
2023/01/16 03:17:18;;;;;;;2.85;1.27;;;2.30;99.90;;;;;;4926548;29;20199;-68
2023/01/16 03:19:59;;;;;;;3.97;1.13;;;2.30;99.90;;;;;;4923570;29;20325;-69
2023/01/16 03:22:35;;;;;;;2.90;1.25;;;2.30;99.90;;;;;;4926455;29;20191;-68
2023/01/16 03:25:18;;;;;;;3.47;1.10;;;2.30;99.90;;;;;;4922578;29;20252;-68
2023/01/16 03:27:53;;;;;;;2.30;1.30;;;2.40;99.90;;;;;;4924402;29;20195;-69
2023/01/16 03:30:27;;;;;;;2.58;1.23;;;2.40;99.90;;;;;;4923229;29;20733;-68
2023/01/16 03:32:59;;;;;;;1.70;1.00;;;2.50;99.90;;;;;;4918014;29;20227;-70
2023/01/16 03:35:32;;;;;;;2.55;1.17;;;2.60;99.90;;;;;;4922944;29;20254;-70
2023/01/16 03:38:05;;;;;;;1.75;0.90;;;2.60;99.90;;;;;;4924584;29;20213;-69
2023/01/16 03:40:37;;;;;;;2.28;1.08;;;2.70;99.90;;;;;;4923304;29;20568;-69
2023/01/16 03:43:09;;;;;;;1.70;1.20;;;2.70;99.90;;;;;;4924914;29;20503;-70
2023/01/16 03:45:42;;;;;;;1.42;0.95;;;2.80;99.90;;;;;;4922536;29;20196;-69
2023/01/16 03:48:14;;;;;;;2.35;1.20;;;2.90;99.90;;;;;;4928070;29;20208;-70
2023/01/16 03:50:46;;;;;;;5.85;1.38;;;2.90;99.90;;;;;;4929914;29;20713;-70
2023/01/16 03:53:17;;;;;;;2.85;1.10;;;2.90;99.90;;;;;;4930763;29;20239;-70
2023/01/16 03:55:50;;;;;;;1.20;0.90;;;2.90;99.90;;;;;;4925272;29;20214;-69
2023/01/16 03:58:22;;;;;;;4.03;1.15;;;2.80;99.90;;;;;;4923755;29;20226;-69
2023/01/16 04:00:55;;;;;;;1.90;1.00;;;2.80;99.90;;;;;;4927377;29;20199;-69
2023/01/16 04:03:28;;;;;;;2.88;0.90;;;2.80;99.90;;;;;;4926634;29;20214;-69
2023/01/16 04:06:05;;;;;;;2.60;1.20;;;2.80;99.90;;;;;;4922655;29;20678;-69
2023/01/16 04:08:37;;;;;;;1.75;1.50;;;2.70;99.90;;;;;;4919985;29;20222;-69
2023/01/16 04:11:06;;;;;;;2.60;1.98;;;2.70;99.90;;;;;;4927533;29;22240;-69
2023/01/16 04:13:36;;;;;;;3.17;1.05;;;2.60;99.90;;;;;;4924485;29;20233;-69
2023/01/16 04:16:08;;;;;;;3.28;1.25;;;2.60;99.90;;;;;;4921459;29;20216;-69
2023/01/16 04:18:36;;;;;;;3.22;1.30;;;2.80;99.90;;;;;;4926812;29;20317;-69
2023/01/16 04:21:06;;;;;;;2.10;1.20;;;2.50;99.90;;;;;;4930969;29;20195;-69
2023/01/16 04:23:34;;;;;;;1.33;1.10;;;2.40;99.90;;;;;;4927028;29;20659;-69
2023/01/16 04:26:01;;;;;;;2.88;1.50;;;2.40;99.90;;;;;;4922729;29;20236;-69
2023/01/16 04:28:28;;;;;;;1.65;1.00;;;2.30;99.90;;;;;;4922187;29;20698;-69
2023/01/16 04:30:55;;;;;;;5.38;1.70;;;2.30;99.90;;;;;;4929257;29;20202;-69
2023/01/16 04:33:22;;;;;;;1.73;1.42;;;2.30;99.90;;;;;;4926101;29;20683;-69
2023/01/16 04:35:49;;;;;;;2.38;1.35;;;2.30;99.90;;;;;;4919991;29;20202;-69
2023/01/16 04:38:17;;;;;;;2.13;1.50;;;2.30;99.90;;;;;;4926124;29;20716;-69
2023/01/16 04:40:45;;;;;;;4.13;1.65;;;2.30;99.90;;;;;;4923727;29;20199;-69
2023/01/16 04:43:11;;;;;;;2.83;1.80;;;2.30;99.90;;;;;;4924631;29;20212;-69
2023/01/16 04:45:40;;;;;;;2.97;1.40;;;2.30;99.90;;;;;;4925582;29;20198;-69
2023/01/16 04:48:07;;;;;;;1.88;1.27;;;2.30;99.90;;;;;;4927250;29;20220;-69
2023/01/16 04:50:34;;;;;;;2.67;1.48;;;2.20;99.90;;;;;;4928637;29;20220;-69
2023/01/16 04:53:01;;;;;;;4.03;1.40;;;2.20;99.90;;;;;;4928584;29;20777;-70
2023/01/16 04:55:29;;;;;;;4.07;1.60;;;2.20;99.90;;;;;;4925352;29;20244;-69
2023/01/16 04:57:56;;;;;;;2.72;1.25;;;2.20;99.90;;;;;;4921890;29;20315;-69
2023/01/16 05:00:23;;;;;;;1.42;1.10;;;2.30;99.90;;;;;;4923046;29;20925;-69
2023/01/16 05:02:53;;;;;;;2.10;1.08;;;2.30;99.90;;;;;;4926758;29;20201;-69
2023/01/16 05:05:19;;;;;;;1.88;1.00;;;2.30;99.90;;;;;;4916561;29;20297;-69
2023/01/16 05:08:15;;;;;;;1.92;0.95;;;2.30;99.90;;;;;;4927309;29;20208;-69
2023/01/16 05:10:35;;;;;;;2.28;1.00;;;2.20;99.90;;;;;;4930679;29;20218;-69
2023/01/16 05:13:02;;;;;;;1.13;0.90;;;2.20;99.90;;;;;;4925101;29;20313;-69
2023/01/16 05:15:29;;;;;;;2.25;1.15;;;2.20;99.90;;;;;;4925733;29;20278;-69
2023/01/16 05:17:57;;;;;;;2.47;1.13;;;2.20;99.90;;;;;;4926601;29;20232;-69
2023/01/16 05:20:24;;;;;;;2.63;0.88;;;2.20;99.90;;;;;;4926806;29;20233;-69
2023/01/16 05:22:50;;;;;;;3.17;1.80;;;2.20;99.90;;;;;;4932176;29;20220;-69
2023/01/16 05:25:18;;;;;;;2.15;0.90;;;2.10;99.90;;;;;;4922270;29;20216;-70
2023/01/16 05:27:49;;;;;;;2.20;1.10;;;2.10;99.90;;;;;;4923067;29;20197;-70
2023/01/16 05:30:17;;;;;;;2.00;1.00;;;2.10;99.90;;;;;;4932168;29;20290;-69
2023/01/16 05:32:44;;;;;;;4.63;1.30;;;2.10;99.90;;;;;;4926042;29;20707;-69
2023/01/16 05:35:11;;;;;;;2.75;1.23;;;2.10;99.90;;;;;;4926771;29;20193;-70
2023/01/16 05:37:38;;;;;;;3.17;1.08;;;2.10;99.90;;;;;;4926531;29;20217;-70
2023/01/16 05:40:06;;;;;;;4.45;1.25;;;2.10;99.90;;;;;;4928626;29;20616;-70
2023/01/16 05:42:33;;;;;;;3.33;0.80;;;2.10;99.90;;;;;;4928687;29;20206;-70
2023/01/16 05:45:01;;;;;;;1.27;0.90;;;2.10;99.90;;;;;;4925464;29;20208;-70
2023/01/16 05:47:29;;;;;;;1.48;0.90;;;2.10;99.90;;;;;;4926133;29;20310;-70
2023/01/16 05:49:58;;;;;;;1.95;1.13;;;2.10;99.90;;;;;;4928584;29;20627;-70
2023/01/16 05:52:25;;;;;;;1.30;1.00;;;2.10;99.90;;;;;;4920966;29;20278;-70
2023/01/16 05:54:52;;;;;;;2.58;1.30;;;2.10;99.90;;;;;;4929347;29;20660;-70
2023/01/16 05:57:20;;;;;;;2.03;1.05;;;2.10;99.90;;;;;;4925271;29;20234;-72
2023/01/16 05:59:49;;;;;;;1.55;1.17;;;2.20;99.90;;;;;;4914972;29;20277;-70
2023/01/16 06:02:17;;;;;;;3.25;1.10;;;2.30;99.90;;;;;;4922665;29;20203;-70
2023/01/16 06:04:45;;;;;;;7.60;1.50;;;2.30;99.90;;;;;;4922366;29;20233;-69
2023/01/16 06:07:13;;;;;;;2.53;1.00;;;2.20;99.90;;;;;;4925443;29;20298;-70
2023/01/16 06:09:40;;;;;;;3.13;1.40;;;2.10;99.90;;;;;;4925010;29;20270;-69
2023/01/16 06:12:08;;;;;;;2.60;1.15;;;2.10;99.90;;;;;;4928000;29;20197;-70
2023/01/16 06:14:35;;;;;;;3.30;1.00;;;2.00;99.90;;;;;;4920667;29;20615;-69
2023/01/16 06:17:02;;;;;;;2.67;1.30;;;2.00;99.90;;;;;;4929549;29;20201;-70
2023/01/16 06:19:30;;;;;;;4.65;1.20;;;1.90;99.90;;;;;;4919366;29;20236;-70
2023/01/16 06:21:57;;;;;;;1.60;0.90;;;2.00;99.90;;;;;;4928933;29;20199;-69
2023/01/16 06:24:25;;;;;;;4.22;1.38;;;2.00;99.90;;;;;;4927107;29;20208;-69
2023/01/16 06:26:52;;;;;;;2.92;1.00;;;2.10;99.90;;;;;;4921664;29;20655;-69
2023/01/16 06:29:19;;;;;;;2.70;1.30;;;2.10;99.90;;;;;;4920586;29;20236;-70
2023/01/16 06:31:46;;;;;;;2.22;1.17;;;2.20;99.90;;;;;;4928548;29;20197;-71
2023/01/16 06:34:13;;;;;;;3.05;1.25;;;2.20;99.90;;;;;;4927213;29;20589;-70
2023/01/16 06:36:42;;;;;;;1.83;1.10;;;2.20;99.90;;;;;;4921624;29;20671;-71
2023/01/16 06:39:11;;;;;;;2.50;1.20;;;2.20;99.90;;;;;;4911277;29;20225;-71
2023/01/16 06:41:38;;;;;;;1.98;1.10;;;2.20;99.90;;;;;;4921062;29;20201;-70
2023/01/16 06:44:05;;;;;;;2.08;1.10;;;2.30;99.90;;;;;;4913485;29;20204;-71
2023/01/16 06:46:32;;;;;;;4.15;1.50;;;2.30;99.90;;;;;;4925214;29;20675;-68
2023/01/16 06:49:00;;;;;;;2.83;1.15;;;2.30;99.90;;;;;;4927431;29;20233;-69
2023/01/16 06:51:27;;;;;;;2.28;1.08;;;2.30;99.90;;;;;;4925329;29;20653;-70
2023/01/16 06:53:56;;;;;;;2.22;1.35;;;2.30;99.90;;;;;;4929649;29;20305;-69
2023/01/16 06:56:24;;;;;;;2.15;1.20;;;2.30;99.90;;;;;;4927805;29;20233;-69
2023/01/16 06:58:51;;;;;;;4.10;1.38;;;2.30;99.90;;;;;;4919482;29;20226;-70
2023/01/16 07:01:18;;;;;;;2.65;1.23;;;2.30;99.90;;;;;;4908446;29;20302;-70
2023/01/16 07:03:45;;;;;;;1.45;1.02;;;2.30;99.90;;;;;;4925957;29;20232;-69
2023/01/16 07:06:13;;;;;;;1.98;1.40;;;2.30;99.90;;;;;;4925492;29;20217;-70
2023/01/16 07:08:40;;;;;;;2.58;1.50;;;2.30;99.90;;;;;;4921146;29;20222;-69
2023/01/16 07:11:09;;;;;;;2.33;1.40;;;2.40;99.90;;;;;;4922817;29;20288;-70
2023/01/16 07:13:36;;;;;;;4.28;1.13;;;2.40;99.90;;;;;;4919978;29;20312;-70
2023/01/16 07:24:21;;;;;;;1.30;1.20;;;2.60;99.90;;;;;;4924526;29;20288;-70
2023/01/16 07:26:52;;;;;;;1.70;1.40;;;2.70;99.90;;;;;;4925902;29;20253;-71
2023/01/16 07:29:19;;;;;;;2.78;1.00;;;2.70;99.90;;;;;;4915050;29;20229;-71
2023/01/16 07:31:46;;;;;;;3.17;1.00;;;2.80;99.90;;;;;;4919188;29;20210;-72
2023/01/16 07:34:13;;;;;;;1.60;0.90;;;2.80;99.90;;;;;;4912590;29;20288;-71
2023/01/16 07:36:40;;;;;;;2.15;1.30;;;2.90;99.90;;;;;;4924828;29;20206;-70
2023/01/16 07:39:07;;;;;;;5.03;1.17;;;3.00;99.90;;;;;;4914881;29;21190;-71
2023/01/16 07:41:34;;;;;;;2.78;1.20;;;3.00;99.90;;;;;;4908163;29;20202;-70
2023/01/16 07:44:03;;;;;;;1.58;1.30;;;3.10;99.90;;;;;;4912747;29;20349;-72
2023/01/16 07:46:30;;;;;;;1.60;1.23;;;3.10;99.90;;;;;;4921210;29;20200;-70
2023/01/16 07:48:57;;;;;;;2.08;1.42;;;3.10;99.90;;;;;;4922875;29;20388;-70
2023/01/16 07:51:24;;;;;;;1.83;1.10;;;3.10;99.90;;;;;;4917099;29;20254;-70
2023/01/16 07:53:51;;;;;;;3.83;1.58;;;3.10;99.90;;;;;;4920175;29;20235;-70
2023/01/16 07:56:18;;;;;;;1.77;1.20;;;3.10;99.90;;;;;;4920209;29;20283;-70
2023/01/16 07:58:46;;;;;;;2.28;1.30;;;3.00;99.90;;;;;;4916359;29;20273;-71
2023/01/16 08:01:14;;;;;;;2.30;1.45;;;3.00;99.90;;;;;;4916287;29;20691;-72
2023/01/16 08:03:41;;;;;;;1.75;1.65;;;3.00;99.90;;;;;;4922435;29;20293;-71
2023/01/16 08:06:08;;;;;;;1.67;1.20;;;3.00;99.90;;;;;;4918607;29;20203;-71
2023/01/16 08:08:35;;;;;;;1.60;1.15;;;3.00;99.90;;;;;;4911340;29;20580;-72
2023/01/16 08:11:35;;;;;;;2.33;1.35;;;3.00;99.90;;;;;;4912445;29;20260;-71
2023/01/16 08:13:52;;;;;;;1.65;1.40;;;3.00;99.90;;;;;;4921301;29;20257;-70
2023/01/16 08:16:20;;;;;;;2.22;1.20;;;3.00;99.90;;;;;;4925209;29;20675;-71
2023/01/16 08:18:48;;;;;;;1.50;1.10;;;3.10;99.90;;;;;;4912909;29;20238;-70
2023/01/16 08:21:16;;;;;;;2.65;1.25;;;3.20;99.90;;;;;;4916326;29;20222;-70
2023/01/16 08:23:44;;;;;;;1.85;1.20;;;3.30;99.90;;;;;;4907212;29;20211;-70
2023/01/16 08:26:12;;;;;;;1.60;1.15;;;3.30;99.90;;;;;;4914774;29;20234;-70
2023/01/16 08:28:40;;;;;;;1.88;1.40;;;3.40;99.90;;;;;;4909832;29;20231;-69
2023/01/16 08:31:11;;;;;;;1.30;1.20;;;3.50;99.90;;;;;;4918872;29;20285;-70
2023/01/16 08:33:40;;;;;;;3.35;1.60;;;3.60;99.90;;;;;;4923308;29;20219;-69
2023/01/16 08:36:10;;;;;;;1.73;0.93;;;3.70;99.90;;;;;;4927395;29;20834;-70
2023/01/16 08:38:37;;;;;;;1.70;1.10;;;3.70;99.90;;;;;;4910263;29;20229;-70
2023/01/16 08:41:04;;;;;;;1.40;1.30;;;3.80;99.90;;;;;;4909493;29;20233;-70
2023/01/16 08:51:56;;;;;;;2.58;1.25;;;3.90;99.90;;;;;;4918871;29;20823;-70
2023/01/16 08:54:23;;;;;;;2.70;0.93;;;4.00;99.90;;;;;;4908942;29;20236;-71
2023/01/16 08:56:50;;;;;;;0.85;0.80;;;4.00;99.90;;;;;;4915852;29;20205;-71
2023/01/16 08:59:17;;;;;;;1.20;0.90;;;4.00;99.90;;;;;;4917601;29;20248;-71
2023/01/16 09:01:45;;;;;;;1.55;1.08;;;4.10;99.90;;;;;;4907509;29;20209;-71
2023/01/16 09:04:13;;;;;;;1.00;0.90;;;4.20;99.90;;;;;;4924989;29;20574;-71
2023/01/16 09:06:40;;;;;;;1.30;0.93;;;4.20;99.90;;;;;;4912371;29;20224;-71
2023/01/16 09:09:08;;;;;;;4.30;1.10;;;4.20;99.90;;;;;;4913888;29;20220;-70
2023/01/16 09:14:20;;;;;;;2.80;1.25;;;4.30;99.90;;;;;;4920796;29;21006;-71
2023/01/16 09:16:49;;;;;;;1.60;1.42;;;4.30;99.90;;;;;;4922499;29;20295;-70
2023/01/16 09:19:18;;;;;;;2.03;1.23;;;4.40;99.90;;;;;;4918006;29;20236;-71
2023/01/16 09:21:45;;;;;;;2.85;1.20;;;4.40;99.90;;;;;;4912899;29;20251;-70
2023/01/16 09:24:12;;;;;;;2.72;1.48;;;4.50;99.90;;;;;;4913224;29;20220;-70
2023/01/16 09:26:39;;;;;;;1.60;1.10;;;4.50;99.90;;;;;;4924742;29;20231;-70
2023/01/16 09:29:06;;;;;;;1.83;1.30;;;4.50;99.90;;;;;;4926181;29;20232;-71
2023/01/16 09:31:33;;;;;;;2.80;1.30;;;4.50;99.90;;;;;;4925591;29;20212;-71
2023/01/16 09:34:00;;;;;;;3.63;1.40;;;4.50;99.90;;;;;;4909490;29;20911;-70
2023/01/16 09:36:29;;;;;;;5.20;1.10;;;4.50;99.90;;;;;;4909873;29;20205;-72
2023/01/16 09:38:56;;;;;;;0.88;0.88;;;4.60;99.90;;;;;;4915462;29;20304;-71
2023/01/16 09:44:14;;;;;;;1.38;0.80;;;4.60;99.90;;;;;;4925666;29;20216;-71
2023/01/16 09:46:46;;;;;;;2.08;0.90;;;4.70;99.90;;;;;;4917157;29;20295;-71
2023/01/16 09:49:21;;;;;;;1.80;0.88;;;4.80;99.90;;;;;;4924126;29;20224;-70
2023/01/16 10:00:35;;;;;;;1.83;0.80;;;4.90;99.90;;;;;;4907284;29;20282;-71
2023/01/16 10:03:02;;;;;;;2.25;0.90;;;4.90;99.90;;;;;;4905677;29;20209;-71
2023/01/16 10:05:37;;;;;;;2.05;1.10;;;4.90;99.90;;;;;;4924746;29;20201;-71
2023/01/16 10:08:17;;;;;;;1.60;0.90;;;4.90;99.90;;;;;;4921825;29;20225;-71
2023/01/16 10:10:46;;;;;;;1.50;1.20;;;4.90;99.90;;;;;;4914272;29;20221;-71
2023/01/16 10:13:27;;;;;;;1.05;0.95;;;4.90;99.90;;;;;;4913829;29;20212;-71
2023/01/16 10:16:03;;;;;;;1.60;0.90;;;4.90;99.90;;;;;;4930128;29;20232;-71
2023/01/16 10:18:37;;;;;;;1.77;1.10;;;5.00;99.90;;;;;;4923969;29;20225;-69
2023/01/16 10:21:28;;;;;;;2.03;1.10;;;5.00;99.90;;;;;;4922605;29;20201;-69
2023/01/16 10:24:03;;;;;;;0.80;0.80;;;5.00;99.90;;;;;;4919115;29;20673;-71
2023/01/16 10:26:31;;;;;;;1.95;0.80;;;5.10;99.90;;;;;;4925754;29;20200;-71
2023/01/16 10:29:19;;;;;;;4.60;0.90;;;5.10;99.90;;;;;;4923916;29;20312;-72
2023/01/16 10:31:50;;;;;;;1.92;0.80;;;5.10;99.90;;;;;;4927398;29;20199;-70
2023/01/16 10:34:21;;;;;;;1.60;0.98;;;5.20;99.90;;;;;;4918497;29;20303;-70
2023/01/16 10:36:52;;;;;;;1.25;0.90;;;5.20;99.90;;;;;;4904700;29;20201;-71
2023/01/16 10:39:22;;;;;;;1.35;0.93;;;5.30;99.90;;;;;;4914302;29;20225;-71
2023/01/16 10:50:12;;;;;;;1.50;1.08;;;5.50;99.90;;;;;;4921375;29;20214;-71
2023/01/16 10:52:40;;;;;;;1.00;0.90;;;5.60;99.90;;;;;;4920651;29;20201;-70
2023/01/16 10:55:10;;;;;;;1.45;0.90;;;5.60;99.90;;;;;;4920649;29;20260;-71
2023/01/16 10:57:44;;;;;;;1.92;0.80;;;5.70;99.90;;;;;;4917859;29;20223;-70
2023/01/16 11:00:18;;;;;;;1.25;0.70;;;5.70;99.90;;;;;;4920711;29;20208;-70
2023/01/16 11:02:48;;;;;;;2.05;0.93;;;5.90;99.90;;;;;;4920773;29;20530;-71
2023/01/16 11:05:26;;;;;;;0.70;0.60;;;6.00;99.90;;;;;;4923944;29;20206;-72
2023/01/16 11:07:54;;;;;;;1.55;0.95;;;6.00;99.90;;;;;;4921828;29;20216;-70
2023/01/16 11:10:24;;;;;;;1.00;0.60;;;6.00;99.90;;;;;;4924380;29;20293;-70
2023/01/16 11:18:30;;;;;;;1.13;0.60;;;6.10;99.90;;;;;;4925962;29;20681;-70
2023/01/16 11:21:00;;;;;;;1.27;0.70;;;6.00;99.90;;;;;;4921075;29;20196;-70
2023/01/16 11:23:36;;;;;;;0.70;0.60;;;6.00;99.90;;;;;;4926094;29;20205;-71
2023/01/16 11:26:06;;;;;;;0.60;0.55;;;6.00;99.90;;;;;;4918027;29;20205;-72
2023/01/16 11:28:35;;;;;;;0.80;0.70;;;6.00;99.90;;;;;;4925767;29;20249;-72
2023/01/16 11:31:05;;;;;;;0.60;0.60;;;6.00;99.90;;;;;;4910556;29;20296;-71
2023/01/16 11:33:37;;;;;;;2.15;0.80;;;5.90;99.90;;;;;;4908924;29;20197;-69
2023/01/16 11:36:05;;;;;;;1.15;0.75;;;5.90;99.90;;;;;;4928416;29;20613;-71
2023/01/16 11:38:37;;;;;;;1.90;0.70;;;5.90;99.90;;;;;;4924516;29;20712;-71
2023/01/16 11:41:08;;;;;;;0.88;0.80;;;6.00;99.90;;;;;;4925945;29;20969;-71
2023/01/16 11:46:32;;;;;;;1.33;0.98;;;5.90;99.90;;;;;;4926192;29;20724;-71
2023/01/16 11:49:01;;;;;;;3.10;0.80;;;5.90;99.90;;;;;;4922639;29;20221;-71
2023/01/16 11:51:30;;;;;;;2.38;0.85;;;5.90;99.90;;;;;;4925620;29;20721;-70
2023/01/16 11:53:59;;;;;;;1.27;0.75;;;5.90;99.90;;;;;;4921703;29;20209;-71
2023/01/16 11:56:44;;;;;;;1.85;0.70;;;6.00;99.90;;;;;;4925944;29;20229;-70
2023/01/16 11:59:23;;;;;;;1.30;0.63;;;6.10;99.90;;;;;;4914679;29;20689;-70
2023/01/16 12:02:19;;;;;;;1.25;0.60;;;6.10;99.90;;;;;;4926516;29;20252;-70
2023/01/16 12:07:43;;;;;;;1.67;0.80;;;6.20;99.90;;;;;;4929157;29;20235;-71
2023/01/16 12:10:29;;;;;;;1.45;0.60;;;6.20;99.90;;;;;;4927531;29;20204;-71
2023/01/16 12:16:02;;;;;;;1.75;0.88;;;6.30;99.90;;;;;;4916548;29;20225;-70
2023/01/16 12:18:36;;;;;;;1.33;0.70;;;6.40;99.90;;;;;;4922171;29;20311;-69
2023/01/16 12:21:05;;;;;;;0.70;0.65;;;6.40;99.90;;;;;;4927711;29;20202;-70
2023/01/16 12:23:55;;;;;;;0.70;0.70;;;6.40;99.90;;;;;;4932853;29;20260;-70
2023/01/16 12:26:26;;;;;;;2.25;0.82;;;6.40;99.90;;;;;;4925026;29;20197;-71
2023/01/16 12:29:12;;;;;;;0.85;0.65;;;6.40;99.90;;;;;;4926063;29;20213;-71
2023/01/16 12:32:00;;;;;;;1.73;0.70;;;6.40;99.90;;;;;;4923292;29;20309;-70
2023/01/16 12:34:54;;;;;;;1.73;0.63;;;6.50;99.90;;;;;;4910447;29;20201;-70
2023/01/16 12:37:53;;;;;;;0.73;0.70;;;6.50;99.90;;;;;;4918276;29;20220;-74
2023/01/16 12:40:34;;;;;;;0.90;0.60;;;6.60;99.90;;;;;;4914721;29;20211;-74
2023/01/16 12:43:18;;;;;;;0.65;0.63;;;6.60;99.90;;;;;;4917793;29;20204;-69
2023/01/16 12:45:52;;;;;;;1.23;0.70;;;6.60;99.90;;;;;;4915371;29;20232;-70
2023/01/16 12:48:46;;;;;;;0.80;0.70;;;6.60;99.90;;;;;;4920423;29;20252;-72
2023/01/16 12:51:39;;;;;;;2.55;0.80;;;6.60;99.90;;;;;;4916763;29;20208;-71
2023/01/16 12:54:30;;;;;;;0.80;0.70;;;6.70;99.90;;;;;;4915294;29;20205;-71
2023/01/16 12:57:19;;;;;;;1.20;0.70;;;6.80;99.90;;;;;;4916893;29;20995;-70
2023/01/16 12:59:50;;;;;;;1.95;0.68;;;6.90;99.90;;;;;;4908476;29;20248;-70
2023/01/16 13:02:27;;;;;;;0.60;0.60;;;7.00;99.90;;;;;;4907603;29;21006;-71
2023/01/16 13:04:59;;;;;;;0.60;0.60;;;7.00;99.90;;;;;;4913976;29;20212;-71
2023/01/16 13:07:30;;;;;;;1.05;0.70;;;7.00;99.90;;;;;;4916293;29;20267;-70
2023/01/16 13:15:35;;;;;;;0.63;0.60;;;7.00;99.90;;;;;;4916220;29;20720;-73
2023/01/16 13:18:10;;;;;;;1.65;0.60;;;7.10;99.90;;;;;;4923214;29;20225;-70
2023/01/16 13:20:39;;;;;;;1.25;0.60;;;7.20;99.90;;;;;;4923676;29;20216;-70
2023/01/16 13:23:15;;;;;;;3.00;0.60;;;7.20;99.90;;;;;;4914361;29;20206;-70
2023/01/16 13:25:45;;;;;;;1.50;0.60;;;7.30;99.90;;;;;;4913986;29;20941;-70
2023/01/16 13:28:22;;;;;;;1.00;0.75;;;7.40;99.90;;;;;;4905492;29;20229;-70
2023/01/16 13:30:53;;;;;;;0.60;0.60;;;7.40;99.90;;;;;;4926181;29;20261;-70
2023/01/16 13:33:28;;;;;;;1.30;0.50;;;7.50;99.90;;;;;;4930433;29;20218;-70
2023/01/16 13:36:05;;;;;;;0.70;0.60;;;7.60;99.90;;;;;;4929119;29;20332;-72
2023/01/16 13:39:00;;;;;;;0.60;0.60;;;7.70;99.90;;;;;;4909421;29;20265;-70
2023/01/16 13:41:31;;;;;;;1.02;0.65;;;7.90;99.90;;;;;;4926432;29;20203;-67
2023/01/16 13:46:49;;;;;;;1.25;0.50;;;8.40;99.90;;;;;;4927452;29;20204;-68
2023/01/16 13:49:22;;;;;;;0.50;0.50;;;8.80;99.90;;;;;;4922752;29;20689;-68
2023/01/16 13:51:51;;;;;;;0.93;0.60;;;9.20;99.90;;;;;;4932041;29;20201;-68
2023/01/16 13:54:22;;;;;;;0.60;0.50;;;9.50;99.90;;;;;;4914207;29;20197;-68
2023/01/16 13:57:01;;;;;;;0.70;0.70;;;9.40;99.90;;;;;;4920827;29;20312;-68
2023/01/16 13:59:38;;;;;;;1.00;0.63;;;9.10;99.90;;;;;;4930021;29;20216;-69
2023/01/16 14:02:24;;;;;;;1.75;0.60;;;9.00;99.90;;;;;;4927784;29;20197;-69
2023/01/16 14:05:25;;;;;;;2.10;0.60;;;9.10;99.90;;;;;;4924537;29;20263;-69
2023/01/16 14:11:16;;;;;;;0.60;0.55;;;9.20;99.90;;;;;;4920606;29;20212;-68
2023/01/16 14:13:43;;;;;;;2.72;0.65;;;9.10;99.90;;;;;;4923969;29;20662;-68
2023/01/16 14:16:30;;;;;;;1.05;0.60;;;9.20;99.90;;;;;;4925491;29;20243;-68
2023/01/16 14:19:02;;;;;;;0.80;0.50;;;8.90;99.90;;;;;;4921246;29;20249;-68
2023/01/16 14:21:41;;;;;;;0.50;0.50;;;8.60;99.90;;;;;;4932092;29;20222;-68
2023/01/16 14:24:15;;;;;;;0.82;0.50;;;8.40;99.90;;;;;;4928053;29;20201;-68
2023/01/16 14:26:47;;;;;;;2.45;0.70;;;8.20;99.90;;;;;;4928281;29;20311;-68
2023/01/16 14:29:21;;;;;;;4.20;0.63;;;8.20;99.90;;;;;;4930184;29;20214;-69